Terminal Aerodrome Forecast
Issued by NWS

Home | Current Version | Previous Version | Graphics & Text | Print | Product List | Glossary On
Versions: 1 2 3 4 5 6 7 8 9 10 11 12 13 14 15 16
000
FTUS43 KICT 240500
TAFRSL
TAF
KRSL 240520Z 2406/2506 11008KT P6SM SKC
     FM241000 15010KT P6SM SKC
      TEMPO 2410/2414 5SM BR
     FM241500 17017G24KT P6SM SKC
     FM250300 16017KT P6SM BKN250=

USA.gov is the U.S. government's official web portal to all federal, state and local government web resources and services.